createdAt,value
2022-12-01T00:00:02.117Z,76.39
2022-12-01T00:02:53.769Z,76.16
2022-12-01T00:05:25.521Z,75.56
2022-12-01T00:07:59.154Z,75.99
2022-12-01T00:10:33.526Z,75.42
2022-12-01T00:13:06.639Z,75.80
2022-12-01T00:15:38.296Z,75.62
2022-12-01T00:18:10.363Z,75.39
2022-12-01T00:20:42.069Z,75.40
2022-12-01T00:23:13.685Z,75.94
2022-12-01T00:25:48.786Z,76.07
2022-12-01T00:28:20.380Z,75.51
2022-12-01T00:30:51.989Z,76.05
2022-12-01T00:33:23.687Z,75.65
2022-12-01T00:36:01.938Z,75.93
2022-12-01T00:38:37.148Z,75.37
2022-12-01T00:41:09.833Z,75.63
2022-12-01T00:43:43.825Z,75.82
2022-12-01T00:46:15.589Z,75.83
2022-12-01T00:48:47.692Z,75.64
2022-12-01T00:51:19.252Z,75.83
2022-12-01T00:53:51.220Z,75.73
2022-12-01T00:56:22.797Z,75.46
2022-12-01T00:58:54.360Z,75.62
2022-12-01T01:01:26.348Z,75.55
2022-12-01T01:04:00.940Z,75.70
2022-12-01T01:06:32.568Z,75.88
2022-12-01T01:09:04.253Z,75.52
2022-12-01T01:11:38.653Z,75.50
2022-12-01T01:14:13.355Z,75.93
2022-12-01T01:16:45.217Z,75.98
2022-12-01T01:19:20.046Z,76.01
2022-12-01T01:21:54.023Z,76.37
2022-12-01T01:24:32.786Z,75.63
2022-12-01T01:27:06.586Z,76.30
2022-12-01T01:29:42.571Z,75.42
2022-12-01T01:32:14.179Z,75.95
2022-12-01T01:34:52.461Z,75.62
2022-12-01T01:37:24.049Z,75.83
2022-12-01T01:39:55.583Z,75.68
2022-12-01T01:42:27.162Z,75.76
2022-12-01T01:44:59.245Z,75.39
2022-12-01T01:47:34.781Z,75.54
2022-12-01T01:50:12.719Z,75.74
2022-12-01T01:53:07.901Z,76.13
2022-12-01T01:55:39.896Z,76.30
2022-12-01T01:58:12.159Z,76.25
2022-12-01T02:00:47.291Z,75.85
2022-12-01T02:03:22.484Z,76.13
2022-12-01T02:05:54.102Z,75.99
2022-12-01T02:08:25.949Z,76.08
2022-12-01T02:11:22.983Z,76.53
2022-12-01T02:14:10.780Z,76.07
2022-12-01T02:17:19.829Z,76.43
2022-12-01T02:20:42.425Z,76.69
2022-12-01T02:23:25.687Z,76.49
2022-12-01T02:26:32.316Z,75.89
2022-12-01T02:29:40.780Z,76.07
2022-12-01T02:32:32.080Z,76.22
2022-12-01T02:35:24.036Z,75.94
2022-12-01T02:38:20.544Z,76.42
2022-12-01T02:41:20.607Z,76.59
2022-12-01T02:44:19.871Z,76.10
2022-12-01T02:47:02.672Z,76.43
2022-12-01T02:49:38.734Z,76.54
2022-12-01T02:52:15.182Z,76.85
2022-12-01T02:54:50.415Z,76.66
2022-12-01T02:57:23.504Z,76.31
2022-12-01T02:59:57.135Z,76.88
2022-12-01T03:02:43.354Z,76.42
2022-12-01T03:05:48.193Z,76.94
2022-12-01T03:08:35.445Z,77.05
2022-12-01T03:11:07.165Z,77.23
2022-12-01T03:13:51.132Z,76.52
2022-12-01T03:16:37.285Z,76.99
2022-12-01T03:19:22.353Z,76.63
2022-12-01T03:22:27.545Z,77.04
2022-12-01T03:25:04.028Z,77.33
2022-12-01T03:28:00.578Z,77.20
2022-12-01T03:30:38.368Z,77.66
2022-12-01T03:33:19.405Z,76.90
2022-12-01T03:36:10.899Z,77.36
2022-12-01T03:38:54.280Z,77.44
2022-12-01T03:41:38.904Z,77.07
2022-12-01T03:44:25.207Z,77.27
2022-12-01T03:47:14.612Z,77.38
2022-12-01T03:49:50.315Z,77.23
2022-12-01T03:52:56.042Z,77.62
2022-12-01T03:55:31.411Z,77.27
2022-12-01T03:58:13.572Z,77.71
2022-12-01T04:00:49.996Z,77.34
2022-12-01T04:03:25.167Z,76.97
2022-12-01T04:06:01.040Z,77.48
2022-12-01T04:08:33.854Z,77.46
2022-12-01T04:11:32.470Z,77.10
2022-12-01T04:14:04.469Z,77.02
2022-12-01T04:16:38.255Z,77.17
2022-12-01T04:19:11.073Z,76.92
2022-12-01T04:21:42.759Z,77.35
2022-12-01T04:24:15.694Z,76.86
2022-12-01T04:26:47.524Z,77.45
2022-12-01T04:29:19.101Z,77.50
2022-12-01T04:31:50.788Z,77.04
2022-12-01T04:34:24.568Z,76.95
2022-12-01T04:36:58.252Z,77.14
2022-12-01T04:39:29.859Z,77.19
2022-12-01T04:42:02.431Z,77.08
2022-12-01T04:44:35.229Z,77.02
2022-12-01T04:47:09.716Z,76.94
2022-12-01T04:49:41.325Z,76.98
2022-12-01T04:52:12.968Z,76.85
2022-12-01T04:54:44.806Z,76.66
2022-12-01T04:57:16.393Z,76.71
2022-12-01T04:59:48.390Z,76.90
2022-12-01T05:02:20.246Z,76.84
2022-12-01T05:04:52.189Z,76.63
2022-12-01T05:07:23.824Z,76.82
2022-12-01T05:09:57.726Z,77.33
2022-12-01T05:12:31.408Z,76.67
2022-12-01T05:15:03.054Z,76.76
2022-12-01T05:17:37.664Z,77.15
2022-12-01T05:20:36.316Z,76.83
2022-12-01T05:23:13.583Z,77.03
2022-12-01T05:25:51.064Z,76.73
2022-12-01T05:28:24.776Z,76.79
2022-12-01T05:31:02.286Z,77.11
2022-12-01T05:33:33.951Z,76.41
2022-12-01T05:36:05.848Z,77.12
2022-12-01T05:38:37.419Z,76.95
2022-12-01T05:41:12.132Z,77.01
2022-12-01T05:43:43.993Z,77.15
2022-12-01T05:46:15.754Z,77.21
2022-12-01T05:48:47.414Z,77.36
2022-12-01T05:51:22.193Z,77.14
2022-12-01T05:53:53.848Z,77.05
2022-12-01T05:56:25.570Z,76.74
2022-12-01T05:58:57.208Z,76.69
2022-12-01T06:01:28.791Z,76.46
2022-12-01T06:04:00.424Z,76.94
2022-12-01T06:06:34.789Z,77.03
2022-12-01T06:09:06.486Z,76.63
2022-12-01T06:11:38.098Z,77.05
2022-12-01T06:14:09.661Z,76.31
2022-12-01T06:16:41.546Z,76.75
2022-12-01T06:19:13.181Z,76.91
2022-12-01T06:21:44.757Z,76.42
2022-12-01T06:24:19.391Z,75.93
2022-12-01T06:26:51.050Z,76.08
2022-12-01T06:29:22.684Z,76.29
2022-12-01T06:31:54.276Z,76.32
2022-12-01T06:34:26.701Z,75.84
2022-12-01T06:37:01.455Z,75.93
2022-12-01T06:39:33.071Z,76.02
2022-12-01T06:42:06.579Z,75.99
2022-12-01T06:44:40.888Z,75.86
2022-12-01T06:47:12.653Z,76.05
2022-12-01T06:49:44.616Z,76.04
2022-12-01T06:52:16.338Z,76.09
2022-12-01T06:54:47.927Z,76.61
2022-12-01T06:57:19.868Z,75.83
2022-12-01T06:59:52.825Z,75.96
2022-12-01T07:02:24.948Z,76.21
2022-12-01T07:04:56.608Z,75.82
2022-12-01T07:07:28.176Z,75.36
2022-12-01T07:10:09.199Z,75.64
2022-12-01T07:12:41.133Z,75.29
2022-12-01T07:15:15.728Z,75.32
2022-12-01T07:17:47.336Z,74.98
2022-12-01T07:20:18.941Z,75.12
2022-12-01T07:22:50.576Z,75.12
2022-12-01T07:25:24.281Z,75.65
2022-12-01T07:27:56.720Z,75.74
2022-12-01T07:30:28.810Z,75.11
2022-12-01T07:33:00.800Z,74.85
2022-12-01T07:35:32.417Z,74.51
2022-12-01T07:38:04.049Z,74.38
2022-12-01T07:40:35.650Z,74.65
2022-12-01T07:43:09.980Z,73.80
2022-12-01T07:45:41.812Z,73.67
2022-12-01T07:48:13.489Z,73.63
2022-12-01T07:50:45.032Z,74.43
2022-12-01T07:53:16.585Z,74.53
2022-12-01T07:55:58.757Z,73.86
2022-12-01T07:58:33.705Z,74.42
2022-12-01T08:01:12.810Z,74.17
2022-12-01T08:03:44.993Z,74.66
2022-12-01T08:06:17.986Z,73.61
2022-12-01T08:08:52.888Z,73.89
2022-12-01T08:11:25.574Z,73.33
2022-12-01T08:13:57.395Z,73.46
2022-12-01T08:16:31.130Z,73.49
2022-12-01T08:19:04.077Z,73.78
2022-12-01T08:21:37.461Z,73.37
2022-12-01T08:24:10.910Z,73.67
2022-12-01T08:26:42.605Z,73.62
2022-12-01T08:29:19.724Z,73.61
2022-12-01T08:31:51.950Z,73.25
2022-12-01T08:34:23.779Z,73.36
2022-12-01T08:36:55.445Z,73.11
2022-12-01T08:39:28.053Z,73.24
2022-12-01T08:42:00.155Z,73.21
2022-12-01T08:44:34.883Z,73.80
2022-12-01T08:47:06.637Z,73.90
2022-12-01T08:49:38.192Z,73.40
2022-12-01T08:52:09.756Z,73.50
2022-12-01T08:54:41.305Z,73.39
2022-12-01T08:57:12.964Z,74.11
2022-12-01T08:59:44.623Z,73.57
2022-12-01T09:02:19.032Z,73.52
2022-12-01T09:04:51.713Z,72.92
2022-12-01T09:07:27.112Z,72.84
2022-12-01T09:09:59.161Z,72.46
2022-12-01T09:12:31.224Z,71.76
2022-12-01T09:15:03.159Z,71.95
2022-12-01T09:17:34.708Z,71.64
2022-12-01T09:20:10.211Z,72.35
2022-12-01T09:22:41.808Z,72.10
2022-12-01T09:25:14.737Z,72.13
2022-12-01T09:27:46.601Z,71.70
2022-12-01T09:30:24.682Z,71.26
2022-12-01T09:32:56.269Z,68.99
2022-12-01T09:35:27.815Z,68.94
2022-12-01T09:37:59.556Z,69.53
2022-12-01T09:40:40.168Z,69.00
2022-12-01T09:43:41.712Z,68.38
2022-12-01T09:46:20.279Z,68.38
2022-12-01T09:48:57.109Z,68.39
2022-12-01T09:51:34.871Z,67.15
2022-12-01T09:54:11.730Z,65.96
2022-12-01T09:56:50.401Z,66.77
2022-12-01T09:59:26.930Z,66.86
2022-12-01T10:02:33.411Z,65.95
2022-12-01T10:05:12.473Z,66.79
2022-12-01T10:07:50.350Z,66.14
2022-12-01T10:10:34.323Z,65.30
2022-12-01T10:13:28.180Z,66.07
2022-12-01T10:16:07.527Z,65.88
2022-12-01T10:19:26.106Z,65.14
2022-12-01T10:22:42.631Z,65.35
2022-12-01T10:25:25.678Z,65.46
2022-12-01T10:28:12.862Z,64.21
2022-12-01T10:30:52.679Z,64.28
2022-12-01T10:33:25.816Z,62.59
2022-12-01T10:35:58.015Z,61.79
2022-12-01T10:38:49.614Z,62.35
2022-12-01T10:41:24.535Z,61.46
2022-12-01T10:44:01.066Z,59.87
2022-12-01T10:46:47.644Z,56.59
2022-12-01T10:49:34.800Z,55.43
2022-12-01T10:52:33.008Z,51.99
2022-12-01T10:55:22.994Z,49.72
2022-12-01T10:57:57.750Z,49.91
2022-12-01T11:00:58.607Z,51.45
2022-12-01T11:03:35.159Z,49.13
2022-12-01T11:06:07.758Z,50.23
2022-12-01T11:08:45.420Z,49.04
2022-12-01T11:11:36.526Z,47.56
2022-12-01T11:14:36.488Z,46.84
2022-12-01T11:17:25.714Z,46.61
2022-12-01T11:19:58.453Z,47.54
2022-12-01T11:22:33.068Z,45.75
2022-12-01T11:25:05.881Z,46.79
2022-12-01T11:27:57.701Z,45.20
2022-12-01T11:30:35.719Z,46.91
2022-12-01T11:33:07.436Z,48.14
2022-12-01T11:35:46.007Z,48.94
2022-12-01T11:38:30.679Z,49.99
2022-12-01T11:41:03.573Z,49.97
2022-12-01T11:43:41.617Z,50.55
2022-12-01T11:46:16.836Z,50.99
2022-12-01T11:49:00.465Z,51.44
2022-12-01T11:51:37.722Z,51.83
2022-12-01T11:54:44.322Z,50.97
2022-12-01T11:57:33.860Z,52.12
2022-12-01T12:00:29.648Z,52.89
2022-12-01T12:03:04.631Z,53.12
2022-12-01T12:05:52.862Z,53.32
2022-12-01T12:08:30.977Z,58.88
2022-12-01T12:11:17.438Z,58.71
2022-12-01T12:14:19.896Z,54.08
2022-12-01T12:17:19.295Z,51.72
2022-12-01T12:20:28.101Z,51.11
2022-12-01T12:23:20.264Z,52.94
2022-12-01T12:26:15.892Z,54.03
2022-12-01T12:29:14.025Z,53.94
2022-12-01T12:32:14.516Z,52.39
2022-12-01T12:35:06.030Z,52.78
2022-12-01T12:38:34.703Z,52.71
2022-12-01T12:41:24.149Z,53.13
2022-12-01T12:44:08.930Z,53.15
2022-12-01T12:47:08.072Z,54.46
2022-12-01T12:49:50.990Z,55.23
2022-12-01T12:52:28.862Z,56.43
2022-12-01T12:55:10.898Z,55.38
2022-12-01T12:57:48.810Z,55.46
2022-12-01T13:00:28.904Z,55.09
2022-12-01T13:03:38.539Z,56.14
2022-12-01T13:06:14.702Z,56.96
2022-12-01T13:09:14.291Z,58.35
2022-12-01T13:12:10.262Z,59.17
2022-12-01T13:14:59.460Z,59.26
2022-12-01T13:17:41.793Z,59.65
2022-12-01T13:20:21.094Z,60.27
2022-12-01T13:22:54.119Z,60.79
2022-12-01T13:25:39.557Z,61.59
2022-12-01T13:28:22.064Z,62.04
2022-12-01T13:31:01.821Z,62.28
2022-12-01T13:33:35.681Z,62.33
2022-12-01T13:39:18.064Z,62.47
2022-12-01T13:42:23.048Z,62.93
2022-12-01T13:45:01.588Z,63.66
2022-12-01T13:47:51.406Z,63.68
2022-12-01T13:50:44.579Z,64.35
2022-12-01T13:53:19.121Z,64.24
2022-12-01T13:56:23.558Z,64.40
2022-12-01T13:58:55.536Z,65.22
2022-12-01T14:01:27.186Z,65.70
2022-12-01T14:04:10.968Z,66.13
2022-12-01T14:06:50.997Z,66.41
2022-12-01T14:09:53.875Z,65.97
2022-12-01T14:12:30.348Z,65.99
2022-12-01T14:15:20.860Z,66.48
2022-12-01T14:18:04.338Z,66.73
2022-12-01T14:20:45.843Z,66.69
2022-12-01T14:23:33.928Z,67.31
2022-12-01T14:26:18.281Z,67.78
2022-12-01T14:28:55.970Z,67.88
2022-12-01T14:31:33.588Z,68.39
2022-12-01T14:34:15.752Z,68.13
2022-12-01T14:37:16.692Z,68.52
2022-12-01T14:40:05.847Z,68.65
2022-12-01T14:43:00.082Z,68.12
2022-12-01T14:45:58.265Z,68.36
2022-12-01T14:48:39.338Z,69.34
2022-12-01T14:51:24.113Z,68.90
2022-12-01T14:53:57.892Z,68.82
2022-12-01T14:56:32.400Z,69.34
2022-12-01T14:59:19.170Z,69.39
2022-12-01T15:01:53.731Z,69.62
2022-12-01T15:04:28.505Z,70.21
2022-12-01T15:07:00.223Z,70.77
2022-12-01T15:09:33.920Z,70.37
2022-12-01T15:12:07.626Z,70.06
2022-12-01T15:14:48.209Z,70.09
2022-12-01T15:17:35.824Z,70.49
2022-12-01T15:20:46.327Z,70.27
2022-12-01T15:23:19.391Z,70.90
2022-12-01T15:25:51.100Z,71.00
2022-12-01T15:28:36.172Z,70.83
2022-12-01T15:31:12.681Z,70.61
2022-12-01T15:33:52.935Z,70.72
2022-12-01T15:36:24.669Z,70.77
2022-12-01T15:39:03.568Z,70.91
2022-12-01T15:41:41.419Z,70.45
2022-12-01T15:44:22.823Z,70.96
2022-12-01T15:46:54.941Z,70.14
2022-12-01T15:49:32.916Z,70.38
2022-12-01T15:52:12.791Z,70.15
2022-12-01T15:54:48.420Z,70.71
2022-12-01T15:57:21.918Z,71.12
2022-12-01T15:59:56.457Z,71.00
2022-12-01T16:02:33.695Z,71.19
2022-12-01T16:05:14.362Z,70.56
2022-12-01T16:08:12.766Z,70.75
2022-12-01T16:10:39.236Z,70.99
2022-12-01T16:13:44.142Z,70.68
2022-12-01T16:16:42.298Z,71.15
2022-12-01T16:19:16.796Z,70.87
2022-12-01T16:21:55.680Z,70.99
2022-12-01T16:24:34.322Z,70.66
2022-12-01T16:27:20.275Z,71.04
2022-12-01T16:29:53.282Z,70.84
2022-12-01T16:32:39.361Z,71.41
2022-12-01T16:35:33.138Z,71.41
2022-12-01T16:38:13.245Z,71.35
2022-12-01T16:40:45.303Z,71.74
2022-12-01T16:43:25.174Z,71.83
2022-12-01T16:46:06.706Z,71.60
2022-12-01T16:48:38.454Z,71.93
2022-12-01T16:51:14.626Z,71.79
2022-12-01T16:53:50.959Z,71.56
2022-12-01T16:56:22.797Z,71.46
2022-12-01T16:58:54.394Z,71.92
2022-12-01T17:01:26.158Z,71.97
2022-12-01T17:04:06.082Z,72.72
2022-12-01T17:06:39.193Z,73.25
2022-12-01T17:09:10.920Z,73.76
2022-12-01T17:11:42.546Z,73.30
2022-12-01T17:14:14.164Z,73.49
2022-12-01T17:16:46.236Z,73.90
2022-12-01T17:19:20.776Z,74.08
2022-12-01T17:21:53.307Z,73.43
2022-12-01T17:24:25.993Z,73.52
2022-12-01T17:26:57.621Z,73.23
2022-12-01T17:29:29.251Z,73.05
2022-12-01T17:32:00.926Z,73.20
2022-12-01T17:34:32.514Z,73.31
2022-12-01T17:37:04.561Z,73.23
2022-12-01T17:39:36.225Z,73.32
2022-12-01T17:42:07.848Z,73.33
2022-12-01T17:44:39.379Z,73.45
2022-12-01T17:47:11.604Z,73.21
2022-12-01T17:49:43.663Z,73.63
2022-12-01T17:52:15.522Z,73.23
2022-12-01T17:54:47.297Z,72.67
2022-12-01T17:57:19.138Z,73.40
2022-12-01T17:59:50.837Z,73.19
2022-12-01T18:02:22.554Z,73.02
2022-12-01T18:04:54.841Z,72.81
2022-12-01T18:07:26.702Z,73.47
2022-12-01T18:09:58.318Z,73.70
2022-12-01T18:12:29.916Z,74.25
2022-12-01T18:15:01.590Z,74.80
2022-12-01T18:17:33.208Z,74.27
2022-12-01T18:20:06.509Z,74.13
2022-12-01T18:22:38.109Z,73.39
2022-12-01T18:25:12.203Z,73.23
2022-12-01T18:27:45.078Z,73.96
2022-12-01T18:30:16.885Z,74.04
2022-12-01T18:32:48.447Z,73.97
2022-12-01T18:35:20.106Z,73.98
2022-12-01T18:37:51.716Z,73.85
2022-12-01T18:40:24.125Z,74.01
2022-12-01T18:42:55.938Z,74.32
2022-12-01T18:45:27.507Z,72.73
2022-12-01T18:47:59.099Z,72.69
2022-12-01T18:50:30.734Z,71.94
2022-12-01T18:53:02.406Z,71.07
2022-12-01T18:55:40.490Z,71.40
2022-12-01T18:58:12.167Z,71.41
2022-12-01T19:00:43.859Z,70.99
2022-12-01T19:03:15.952Z,71.08
2022-12-01T19:05:47.587Z,76.30
2022-12-01T19:08:19.276Z,77.07
2022-12-01T19:11:01.707Z,74.16
2022-12-01T19:13:34.233Z,74.56
2022-12-01T19:16:08.431Z,75.91
2022-12-01T19:18:40.534Z,71.08
2022-12-01T19:21:18.601Z,72.47
2022-12-01T19:23:50.578Z,70.18
2022-12-01T19:26:23.193Z,70.57
2022-12-01T19:28:55.914Z,71.25
2022-12-01T19:31:27.709Z,69.13
2022-12-01T19:33:59.343Z,68.02
2022-12-01T19:36:31.028Z,68.52
2022-12-01T19:39:05.974Z,69.54
2022-12-01T19:41:41.303Z,67.24
2022-12-01T19:44:14.676Z,67.30
2022-12-01T19:46:46.256Z,67.74
2022-12-01T19:49:17.931Z,68.24
2022-12-01T19:51:49.621Z,68.26
2022-12-01T19:54:21.406Z,68.68
2022-12-01T19:56:53.081Z,68.52
2022-12-01T19:59:26.740Z,69.28
2022-12-01T20:01:58.566Z,68.83
2022-12-01T20:04:30.292Z,69.48
2022-12-01T20:07:02.125Z,69.94
2022-12-01T20:09:33.741Z,69.67
2022-12-01T20:12:05.472Z,70.23
2022-12-01T20:14:37.091Z,70.58
2022-12-01T20:17:14.327Z,71.37
2022-12-01T20:19:47.379Z,71.17
2022-12-01T20:22:19.113Z,71.16
2022-12-01T20:24:50.985Z,71.27
2022-12-01T20:27:22.709Z,71.30
2022-12-01T20:29:56.120Z,72.17
2022-12-01T20:32:27.820Z,72.00
2022-12-01T20:34:59.608Z,72.11
2022-12-01T20:37:31.277Z,71.79
2022-12-01T20:40:08.056Z,71.65
2022-12-01T20:42:39.744Z,71.45
2022-12-01T20:45:11.360Z,72.17
2022-12-01T20:47:43.042Z,72.09
2022-12-01T20:50:15.867Z,72.29
2022-12-01T20:52:47.468Z,72.08
2022-12-01T20:55:19.176Z,72.03
2022-12-01T20:57:50.999Z,72.04
2022-12-01T21:00:23.538Z,72.58
2022-12-01T21:02:56.958Z,72.26
2022-12-01T21:05:28.639Z,72.23
2022-12-01T21:08:01.722Z,72.88
2022-12-01T21:10:36.685Z,72.43
2022-12-01T21:13:42.508Z,73.06
2022-12-01T21:16:16.867Z,72.52
2022-12-01T21:18:56.121Z,72.83
2022-12-01T21:21:30.855Z,73.03
2022-12-01T21:24:16.668Z,73.09
2022-12-01T21:26:58.297Z,73.45
2022-12-01T21:29:49.831Z,73.10
2022-12-01T21:32:33.463Z,73.42
2022-12-01T21:35:16.518Z,73.16
2022-12-01T21:37:49.315Z,73.41
2022-12-01T21:40:23.834Z,73.91
2022-12-01T21:43:01.125Z,73.38
2022-12-01T21:45:32.735Z,73.23
2022-12-01T21:48:18.360Z,73.53
2022-12-01T21:51:00.712Z,73.35
2022-12-01T21:53:38.394Z,73.53
2022-12-01T21:56:21.282Z,73.27
2022-12-01T21:58:55.356Z,73.85
2022-12-01T22:01:31.871Z,73.39
2022-12-01T22:04:19.246Z,73.65
2022-12-01T22:06:55.965Z,73.61
2022-12-01T22:09:36.611Z,74.08
2022-12-01T22:12:28.891Z,73.75
2022-12-01T22:15:01.732Z,74.09
2022-12-01T22:17:36.836Z,74.42
2022-12-01T22:20:22.179Z,74.41
2022-12-01T22:22:53.761Z,74.11
2022-12-01T22:25:26.759Z,74.72
2022-12-01T22:27:59.958Z,74.60
2022-12-01T22:30:33.656Z,74.35
2022-12-01T22:33:14.770Z,74.50
2022-12-01T22:35:51.765Z,74.30
2022-12-01T22:38:26.377Z,74.42
2022-12-01T22:41:07.338Z,74.40
2022-12-01T22:43:47.456Z,74.21
2022-12-01T22:46:23.754Z,74.14
2022-12-01T22:49:01.497Z,74.19
2022-12-01T22:51:46.382Z,74.42
2022-12-01T22:54:17.943Z,74.55
2022-12-01T22:57:03.872Z,74.12
2022-12-01T22:59:37.966Z,74.42
2022-12-01T23:02:33.487Z,74.11
2022-12-01T23:05:25.471Z,74.17
2022-12-01T23:07:57.685Z,73.83
2022-12-01T23:10:33.613Z,73.99
2022-12-01T23:13:24.641Z,73.88
2022-12-01T23:15:56.388Z,73.78
2022-12-01T23:18:32.136Z,73.64
2022-12-01T23:21:04.081Z,73.70
2022-12-01T23:23:37.421Z,73.77
2022-12-01T23:26:10.467Z,74.54
2022-12-01T23:28:42.144Z,74.83
2022-12-01T23:31:14.066Z,74.24
2022-12-01T23:33:45.777Z,74.42
2022-12-01T23:36:24.323Z,74.10
2022-12-01T23:39:01.370Z,74.87
2022-12-01T23:41:39.067Z,74.97
2022-12-01T23:44:24.067Z,74.99
2022-12-01T23:46:57.775Z,74.75
2022-12-01T23:49:33.120Z,75.31
2022-12-01T23:52:11.018Z,74.85
2022-12-01T23:54:42.725Z,74.56
2022-12-01T23:57:21.752Z,75.23
2022-12-01T23:59:58.306Z,74.72
